createdAt,value
2019-04-03T00:03:07.262Z,99813.67
2019-04-03T00:07:11.045Z,99824.14
2019-04-03T00:11:14.822Z,99825.31
2019-04-03T00:15:18.430Z,99823.20
2019-04-03T00:19:21.960Z,99821.34
2019-04-03T00:23:25.495Z,99812.27
2019-04-03T00:27:29.180Z,99815.31
2019-04-03T00:31:32.902Z,99827.41
2019-04-03T00:35:36.617Z,99821.82
2019-04-03T00:39:40.230Z,99822.41
2019-04-03T00:43:44.048Z,99814.38
2019-04-03T00:47:47.740Z,99814.38
2019-04-03T00:51:51.528Z,99822.95
2019-04-03T00:55:56.411Z,99816.77
2019-04-03T01:00:00.665Z,99815.75
2019-04-03T01:04:04.497Z,99810.49
2019-04-03T01:08:08.464Z,99808.22
2019-04-03T01:12:12.109Z,99817.77
2019-04-03T01:16:15.712Z,99830.56
2019-04-03T01:20:19.335Z,99829.94
2019-04-03T01:24:22.951Z,99830.84
2019-04-03T01:28:26.668Z,99832.84
2019-04-03T01:32:30.286Z,99817.91
2019-04-03T01:36:33.894Z,99830.94
2019-04-03T01:40:37.507Z,99826.28
2019-04-03T01:44:44.295Z,99826.84
2019-04-03T01:48:48.044Z,99821.06
2019-04-03T01:52:51.737Z,99822.56
2019-04-03T01:56:55.353Z,99821.16
2019-04-03T02:00:58.998Z,99820.71
2019-04-03T02:05:02.623Z,99834.92
2019-04-03T02:09:09.266Z,99828.34
2019-04-03T02:13:12.794Z,99824.38
2019-04-03T02:17:16.392Z,99828.81
2019-04-03T02:21:20.003Z,99826.03
2019-04-03T02:25:24.745Z,99817.19
2019-04-03T02:29:28.457Z,99810.94
2019-04-03T02:33:32.175Z,99811.72
2019-04-03T02:37:36.129Z,99814.23
2019-04-03T02:41:39.822Z,99815.43
2019-04-03T02:45:43.904Z,99811.76
2019-04-03T02:49:47.866Z,99801.81
2019-04-03T02:53:51.679Z,99797.61
2019-04-03T02:57:55.326Z,99796.84
2019-04-03T03:01:58.913Z,99796.59
2019-04-03T03:06:02.881Z,99798.33
2019-04-03T03:10:08.314Z,99792.06
2019-04-03T03:14:13.126Z,99786.84
2019-04-03T03:18:17.049Z,99781.89
2019-04-03T03:22:21.286Z,99782.27
2019-04-03T03:26:25.501Z,99780.56
2019-04-03T03:30:42.129Z,99786.84
2019-04-03T03:34:55.056Z,99775.57
2019-04-03T03:38:45.319Z,99765.00
2019-04-03T03:42:50.611Z,99751.28
2019-04-03T03:46:59.343Z,99747.56
2019-04-03T03:51:03.576Z,99761.84
2019-04-03T03:55:09.243Z,99767.78
2019-04-03T03:59:16.376Z,99775.09
2019-04-03T04:03:18.612Z,99779.27
2019-04-03T04:07:22.604Z,99787.98
2019-04-03T04:11:30.834Z,99786.48
2019-04-03T04:15:36.597Z,99783.81
2019-04-03T04:19:40.549Z,99776.73
2019-04-03T04:23:44.673Z,99778.70
2019-04-03T04:27:48.881Z,99778.70
2019-04-03T04:31:52.534Z,99778.59
2019-04-03T04:35:56.129Z,99779.87
2019-04-03T04:40:00.263Z,99773.83
2019-04-03T04:44:04.276Z,99768.25
2019-04-03T04:48:07.906Z,99768.14
2019-04-03T04:52:11.502Z,99768.48
2019-04-03T04:56:15.245Z,99765.45
2019-04-03T05:00:19.083Z,99765.67
2019-04-03T05:04:23.292Z,99770.45
2019-04-03T05:08:28.072Z,99769.75
2019-04-03T05:12:31.882Z,99773.47
2019-04-03T05:16:35.655Z,99783.93
2019-04-03T05:20:39.632Z,99782.53
2019-04-03T05:24:43.292Z,99784.62
2019-04-03T05:28:55.751Z,99783.81
2019-04-03T05:32:52.201Z,99790.18
2019-04-03T05:36:56.012Z,99785.06
2019-04-03T05:40:59.692Z,99780.06
2019-04-03T05:45:04.551Z,99778.78
2019-04-03T05:49:10.811Z,99780.63
2019-04-03T05:53:13.911Z,99788.79
2019-04-03T05:57:17.731Z,99791.55
2019-04-03T06:01:21.393Z,99794.77
2019-04-03T06:05:24.962Z,99803.24
2019-04-03T06:09:28.830Z,99806.62
2019-04-03T06:13:32.491Z,99809.80
2019-04-03T06:17:36.863Z,99810.70
2019-04-03T06:21:45.653Z,99808.52
2019-04-03T06:25:49.134Z,99805.59
2019-04-03T06:29:55.029Z,99812.05
2019-04-03T06:33:59.372Z,99812.52
2019-04-03T06:38:03.082Z,99808.84
2019-04-03T06:42:06.801Z,99822.44
2019-04-03T06:46:10.457Z,99822.94
2019-04-03T06:50:16.901Z,99826.09
2019-04-03T06:54:19.823Z,99825.44
2019-04-03T06:58:26.512Z,99828.19
2019-04-03T07:02:31.393Z,99826.38
2019-04-03T07:06:34.354Z,99823.84
2019-04-03T07:10:40.274Z,99822.95
2019-04-03T07:14:43.420Z,99833.87
2019-04-03T07:18:47.013Z,99830.28
2019-04-03T07:22:50.825Z,99838.53
2019-04-03T07:26:54.575Z,99849.22
2019-04-03T07:30:58.446Z,99852.47
2019-04-03T07:35:05.196Z,99849.95
2019-04-03T07:39:10.613Z,99849.94
2019-04-03T07:43:15.041Z,99845.67
2019-04-03T07:47:18.652Z,99841.84
2019-04-03T07:51:22.268Z,99834.30
2019-04-03T07:55:27.999Z,99834.30
2019-04-03T07:59:33.415Z,99842.77
2019-04-03T08:03:36.485Z,99845.47
2019-04-03T08:07:40.464Z,99851.38
2019-04-03T08:11:43.993Z,99859.23
2019-04-03T08:15:47.745Z,99860.31
2019-04-03T08:19:53.593Z,99866.70
2019-04-03T08:23:57.085Z,99870.75
2019-04-03T08:28:00.730Z,99870.48
2019-04-03T08:32:04.855Z,99873.73
2019-04-03T08:36:08.994Z,99877.25
2019-04-03T08:40:15.564Z,99890.63
2019-04-03T08:44:19.175Z,99899.28
2019-04-03T08:48:22.790Z,99896.84
2019-04-03T08:52:26.513Z,99902.27
2019-04-03T08:56:30.224Z,99903.36
2019-04-03T09:00:33.912Z,99898.33
2019-04-03T09:04:37.767Z,99900.29
2019-04-03T09:08:41.373Z,99900.02
2019-04-03T09:12:44.915Z,99904.22
2019-04-03T09:16:48.500Z,99912.00
2019-04-03T09:20:52.369Z,99914.30
2019-04-03T09:24:56.034Z,99917.28
2019-04-03T09:28:59.749Z,99917.55
2019-04-03T09:33:03.362Z,99918.77
2019-04-03T09:37:09.841Z,99919.64
2019-04-03T09:41:13.557Z,99921.80
2019-04-03T09:45:18.747Z,99908.22
2019-04-03T09:49:22.432Z,99908.95
2019-04-03T09:53:26.738Z,99906.44
2019-04-03T09:57:31.328Z,99903.89
2019-04-03T10:01:35.417Z,99887.78
2019-04-03T10:05:39.033Z,99887.78
2019-04-03T10:09:45.021Z,99896.98
2019-04-03T10:13:48.868Z,99898.07
2019-04-03T10:17:52.550Z,99902.13
2019-04-03T10:21:56.166Z,99913.30
2019-04-03T10:26:00.064Z,99908.14
2019-04-03T10:30:08.614Z,99906.05
2019-04-03T10:34:13.728Z,99889.56
2019-04-03T10:38:18.312Z,99887.46
2019-04-03T10:42:22.735Z,99879.13
2019-04-03T10:46:26.757Z,99874.59
2019-04-03T10:50:30.472Z,99864.45
2019-04-03T10:54:34.095Z,99868.25
2019-04-03T10:58:38.425Z,99854.54
2019-04-03T11:02:43.200Z,99849.61
2019-04-03T11:06:47.279Z,99842.02
2019-04-03T11:10:50.999Z,99831.94
2019-04-03T11:14:54.764Z,99839.24
2019-04-03T11:19:02.721Z,99834.71
2019-04-03T11:23:06.296Z,99829.39
2019-04-03T11:27:09.141Z,99826.88
2019-04-03T11:31:24.965Z,99832.28
2019-04-03T11:35:20.574Z,99822.47
2019-04-03T11:39:23.573Z,99820.48
2019-04-03T11:43:27.818Z,99812.94
2019-04-03T11:47:32.579Z,99817.70
2019-04-03T11:51:36.243Z,99811.55
2019-04-03T11:55:41.815Z,99810.59
2019-04-03T11:59:47.005Z,99805.35
2019-04-03T12:03:51.612Z,99796.14
2019-04-03T12:07:56.557Z,99802.45
2019-04-03T12:12:01.291Z,99791.93
2019-04-03T12:16:06.143Z,99782.45
2019-04-03T12:20:10.911Z,99790.61
2019-04-03T12:24:15.028Z,99778.22
2019-04-03T12:28:19.026Z,99760.06
2019-04-03T12:32:23.022Z,99782.39
2019-04-03T12:36:28.262Z,99774.88
2019-04-03T12:40:32.844Z,99762.20
2019-04-03T12:44:36.642Z,99751.84
2019-04-03T12:48:40.386Z,99747.42
2019-04-03T12:52:45.033Z,99747.42
2019-04-03T12:56:49.343Z,99739.48
2019-04-03T13:00:53.410Z,99742.19
2019-04-03T13:04:57.075Z,99737.62
2019-04-03T13:09:00.691Z,99734.48
2019-04-03T13:13:04.735Z,99730.93
2019-04-03T13:17:08.489Z,99726.98
2019-04-03T13:21:12.353Z,99726.80
2019-04-03T13:25:20.351Z,99718.31
2019-04-03T13:29:22.955Z,99706.87
2019-04-03T13:33:26.686Z,99703.68
2019-04-03T13:37:30.285Z,99698.27
2019-04-03T13:41:34.858Z,99693.50
2019-04-03T13:45:39.021Z,99670.66
2019-04-03T13:49:43.331Z,99685.23
2019-04-03T13:53:46.893Z,99687.45
2019-04-03T13:57:51.393Z,99691.45
2019-04-03T14:01:55.324Z,99700.60
2019-04-03T14:05:59.070Z,99683.23
2019-04-03T14:10:03.265Z,99688.59
2019-04-03T14:14:07.014Z,99685.34
2019-04-03T14:18:10.877Z,99686.06
2019-04-03T14:22:14.689Z,99679.48
2019-04-03T14:26:18.486Z,99677.70
2019-04-03T14:30:22.085Z,99667.98
2019-04-03T14:34:29.262Z,99666.55
2019-04-03T14:38:33.068Z,99656.95
2019-04-03T14:42:38.461Z,99639.41
2019-04-03T14:46:43.506Z,99647.84
2019-04-03T14:50:47.806Z,99647.84
2019-04-03T14:54:52.003Z,99640.98
2019-04-03T14:58:58.929Z,99645.02
2019-04-03T15:03:04.752Z,99637.78
2019-04-03T15:07:09.926Z,99633.54
2019-04-03T15:11:13.896Z,99629.52
2019-04-03T15:15:20.365Z,99633.11
2019-04-03T15:19:23.998Z,99631.18
2019-04-03T15:23:28.877Z,99619.23
2019-04-03T15:27:32.576Z,99618.27
2019-04-03T15:31:36.900Z,99618.11
2019-04-03T15:35:41.381Z,99618.09
2019-04-03T15:39:47.803Z,99604.54
2019-04-03T15:43:52.027Z,99598.25
2019-04-03T15:47:57.669Z,99590.01
2019-04-03T15:52:01.597Z,99581.94
2019-04-03T15:56:05.901Z,99581.94
2019-04-03T16:00:13.153Z,99579.67
2019-04-03T16:04:18.306Z,99587.68
2019-04-03T16:08:22.199Z,99576.30
2019-04-03T16:12:26.039Z,99577.28
2019-04-03T16:16:29.882Z,99587.11
2019-04-03T16:20:36.591Z,99594.20
2019-04-03T16:24:41.680Z,99595.50
2019-04-03T16:28:45.715Z,99593.88
2019-04-03T16:32:49.660Z,99592.41
2019-04-03T16:36:53.353Z,99587.41
2019-04-03T16:40:57.615Z,99579.46
2019-04-03T16:45:04.485Z,99577.64
2019-04-03T16:49:08.920Z,99579.55
2019-04-03T16:53:12.858Z,99574.09
2019-04-03T16:57:16.550Z,99566.16
2019-04-03T17:01:21.030Z,99560.50
2019-04-03T17:05:25.567Z,99561.81
2019-04-03T17:09:31.755Z,99558.22
2019-04-03T17:13:34.988Z,99556.55
2019-04-03T17:17:39.155Z,99565.50
2019-04-03T17:21:43.786Z,99568.69
2019-04-03T17:25:50.590Z,99567.66
2019-04-03T17:29:53.671Z,99571.49
2019-04-03T17:33:57.779Z,99570.88
2019-04-03T17:38:01.723Z,99581.79
2019-04-03T17:42:06.784Z,99581.31
2019-04-03T17:46:11.477Z,99581.31
2019-04-03T17:50:15.544Z,99580.77
2019-04-03T17:54:19.323Z,99592.09
2019-04-03T17:58:24.063Z,99593.61
2019-04-03T18:02:29.608Z,99595.91
2019-04-03T18:06:33.773Z,99590.23
2019-04-03T18:10:37.770Z,99587.61
2019-04-03T18:14:41.911Z,99590.08
2019-04-03T18:18:45.818Z,99593.64
2019-04-03T18:22:51.004Z,99593.47
2019-04-03T18:26:55.414Z,99588.91
2019-04-03T18:30:59.317Z,99581.87
2019-04-03T18:35:03.241Z,99581.87
2019-04-03T18:39:09.721Z,99589.14
2019-04-03T18:43:14.050Z,99580.47
2019-04-03T18:47:19.101Z,99581.28
2019-04-03T18:51:22.939Z,99574.06
2019-04-03T18:55:27.790Z,99563.31
2019-04-03T18:59:31.580Z,99561.01
2019-04-03T19:03:36.391Z,99559.85
2019-04-03T19:07:40.752Z,99555.57
2019-04-03T19:11:44.336Z,99545.66
2019-04-03T19:15:48.298Z,99523.84
2019-04-03T19:20:09.448Z,99520.61
2019-04-03T19:24:01.059Z,99521.27
2019-04-03T19:28:04.927Z,99512.19
2019-04-03T19:32:11.832Z,99500.92
2019-04-03T19:36:14.036Z,99497.59
2019-04-03T19:40:17.653Z,99506.46
2019-04-03T19:44:21.701Z,99505.30
2019-04-03T19:48:25.647Z,99489.82
2019-04-03T19:52:30.379Z,99479.80
2019-04-03T19:56:34.706Z,99477.34
2019-04-03T20:00:38.857Z,99472.78
2019-04-03T20:04:42.818Z,99474.98
2019-04-03T20:08:47.401Z,99476.46
2019-04-03T20:12:52.649Z,99469.58
2019-04-03T20:17:02.805Z,99467.35
2019-04-03T20:21:06.817Z,99459.39
2019-04-03T20:25:14.485Z,99461.02
2019-04-03T20:29:16.408Z,99469.23
2019-04-03T20:33:20.001Z,99458.15
2019-04-03T20:37:26.015Z,99429.55
2019-04-03T20:41:29.069Z,99444.83
2019-04-03T20:45:33.716Z,99453.46
2019-04-03T20:49:37.444Z,99443.92
2019-04-03T20:53:41.047Z,99412.09
2019-04-03T20:57:54.910Z,99408.80
2019-04-03T21:01:50.106Z,99378.11
2019-04-03T21:05:53.743Z,99383.71
2019-04-03T21:10:00.625Z,99389.52
2019-04-03T21:14:05.450Z,99393.36
2019-04-03T21:18:08.148Z,99382.91
2019-04-03T21:22:11.706Z,99371.78
2019-04-03T21:26:15.373Z,99373.00
2019-04-03T21:30:19.090Z,99372.05
2019-04-03T21:34:23.644Z,99357.62
2019-04-03T21:38:27.243Z,99362.20
2019-04-03T21:42:30.805Z,99369.83
2019-04-03T21:46:34.572Z,99361.73
2019-04-03T21:50:38.288Z,99350.88
2019-04-03T21:54:41.910Z,99345.75
2019-04-03T21:58:45.515Z,99341.22
2019-04-03T22:02:52.517Z,99356.86
2019-04-03T22:06:57.876Z,99344.44
2019-04-03T22:11:04.616Z,99328.36
2019-04-03T22:15:09.129Z,99337.06
2019-04-03T22:19:13.122Z,99329.03
2019-04-03T22:23:16.926Z,99319.05
2019-04-03T22:27:20.536Z,99320.95
2019-04-03T22:31:30.396Z,99314.48
2019-04-03T22:35:34.113Z,99305.36
2019-04-03T22:39:39.040Z,99302.69
2019-04-03T22:43:44.162Z,99299.66
2019-04-03T22:47:48.638Z,99293.19
2019-04-03T22:51:52.356Z,99287.94
2019-04-03T22:55:55.970Z,99280.59
2019-04-03T22:59:59.835Z,99301.15
2019-04-03T23:04:05.325Z,99482.02
2019-04-03T23:08:09.171Z,99499.09
2019-04-03T23:12:12.783Z,99433.83
2019-04-03T23:16:16.498Z,99445.16
2019-04-03T23:20:22.178Z,99446.47
2019-04-03T23:24:28.545Z,99433.16
2019-04-03T23:28:33.728Z,99446.48
2019-04-03T23:32:36.588Z,99446.52
2019-04-03T23:36:40.204Z,99426.86
2019-04-03T23:40:43.832Z,99427.83
2019-04-03T23:44:47.530Z,99424.25
2019-04-03T23:48:51.975Z,99399.63
2019-04-03T23:52:55.782Z,99365.25
2019-04-03T23:56:59.561Z,99365.25
